Terminal Aerodrome Forecast
Issued by NWS Cleveland, OH

Home | Current Version | Previous Version | Graphics & Text | Print | Product List | Glossary On
Versions: 1 2 3 4 5 6 7 8 9 10 11 12 13 14 15
000
FTUS41 KCLE 190500
TAFMFD
TAF
KMFD 190531Z 1906/2006 27005KT 5SM BR OVC006
     FM191600 32005KT P6SM OVC010
     FM192200 VRB03KT P6SM OVC020
     FM200200 VRB03KT P6SM OVC015=

USA.gov is the U.S. government's official web portal to all federal, state and local government web resources and services.